Hauptseite
METAR-TAF:

METAR-TAF

Flughäfen :

Treviso, Italien

Militärflugplatz Istrana

Breite: 45-41N, Länge: 012-06E, Höhe: 45 m

Beobachtung

Neuester Wetterbericht von vor 56 Minuten, um 22:55 UTC
Wind 6 kt aus Nord
Temperatur 1°C
Luftfeuchtigkeit 93%
Luftdruck 1012 hPa
Sichtweite 10 km oder mehr
keine Wolken unter 1500 m und keine Kumulonimbus oder Gewitterwolken

METAR: LIPS 182255Z 35006KT CAVOK 01/00 Q1012 RMK SKC VIS MIN 9999 WIND THR26 35003KT WIND THR08 01003KT BLU

Zeit: 00:51 (23:51 UTC)

Prognose

Neuester Wetterbericht von vor 51 Minuten, um 23:00 UTC
Gültige Prognose vom 19 um 00 UTC bis 19 um 09 UTC
Wind 5 kt aus Ost/Nordost
Sichtweite 10 km oder mehr
keine Wolken unter 1500 m und keine Kumulonimbus oder Gewitterwolken
Wahrscheinlichkeit 30% :
Zeitweise
vom 19 um 02 UTC bis 19 um 06 UTC
Sichtweite: 5000 m
feuchter Dunst

TAF: LIPS 182300Z 1900/1909 06005KT CAVOK PROB30 TEMPO 1902/1906 5000 BR

Wetterbeobachtungen und Prognosen von mehr als 4000 Flughäfen (METAR und TAF Bericht).

Die verfügbaren Stationen werden durch gelbe und rote Markierungen auf der Karte dargestellt.

Führen Sie die Maus auf sie, um den Namen der Station zu sehen.

Darauf klicken, um die Beobachtung von Wetterbeobachtungen und Prognosen zu sehen.

Um die Karte zu ändern : klicken Sie auf den grünen Tasten mit einem schwarzen Kreuz Zum Vergrößern, auf den grünen Button mit einem Gedankenstrich zu verkleinern, oder auf die grünen Pfeile für benachbarte Karten.


METAR-TAF: